Time;durP1;ratioP1;P1;durP2;ratioP2;P2;SDS_P1;SDS_P2;PMS_P1;PMS_P2;Temp;Humidity;BMP_temperature;BMP_pressure;BME280_temperature;BME280_humidity;BME280_pressure;Samples;Min_cycle;Max_cycle;Signal;HPM_P1;HPM_P2
2024/01/12 00:01:41;;;;;;;;;;;;;;;-3.22;100.00;97409.94;110299;1241;69451;-73
2024/01/12 00:04:11;;;;;;;;;;;;;;;-3.21;100.00;97407.85;110323;1241;69156;-73
2024/01/12 00:06:42;;;;;;;;;;;;;;;-3.22;100.00;97404.13;110381;1241;60495;-73
2024/01/12 00:09:12;;;;;;;;;;;;;;;-3.23;100.00;97406.02;110387;1241;60536;-72
2024/01/12 00:11:43;;;;;;;;;;;;;;;-3.29;100.00;97406.31;110380;1241;71489;-72
2024/01/12 00:14:14;;;;;;;;;;;;;;;-3.30;100.00;97409.58;110416;1241;69646;-73
2024/01/12 00:16:48;;;;;;;;;;;;;;;-3.34;100.00;97414.76;110351;1241;70096;-73
2024/01/12 00:19:19;;;;;;;;;;;;;;;-3.36;100.00;97412.76;110396;1242;60537;-72
2024/01/12 00:21:49;;;;;;;;;;;;;;;-3.37;100.00;97407.99;110407;1238;60604;-73
2024/01/12 00:24:19;;;;;;;;;;;;;;;-3.46;100.00;97408.14;110446;1241;72209;-73
2024/01/12 00:26:51;;;;;;;;;;;;;;;-3.45;100.00;97412.56;110434;1241;70113;-73
2024/01/12 00:29:21;;;;;;;;;;;;;;;-3.39;100.00;97415.52;110402;1238;69068;-73
2024/01/12 00:31:53;;;;;;;;;;;;;;;-3.35;100.00;97417.50;110404;1241;60742;-73
2024/01/12 00:34:23;;;;;;;;;;;;;;;-3.33;100.00;97416.61;110392;1241;60478;-73
2024/01/12 00:36:54;;;;;;;;;;;;;;;-3.32;100.00;97417.45;110399;1241;71994;-71
2024/01/12 00:39:24;;;;;;;;;;;;;;;-3.29;100.00;97419.44;110431;1241;68446;-74
2024/01/12 00:41:54;;;;;;;;;;;;;;;-3.28;100.00;97422.16;110464;1241;69678;-74
2024/01/12 00:44:25;;;;;;;;;;;;;;;-3.32;100.00;97425.29;110392;1242;60547;-72
2024/01/12 00:46:57;;;;;;;;;;;;;;;-3.39;100.00;97420.13;110397;1241;60540;-74
2024/01/12 00:49:30;;;;;;;;;;;;;;;-3.44;100.00;97420.04;110424;1242;71350;-74
2024/01/12 00:52:01;;;;;;;;;;;;;;;-3.38;100.00;97426.25;110532;1242;68410;-74
2024/01/12 00:54:33;;;;;;;;;;;;;;;-3.38;100.00;97424.38;110515;1241;69269;-74
2024/01/12 00:57:05;;;;;;;;;;;;;;;-3.49;100.00;97425.40;110517;1241;60617;-74
2024/01/12 00:59:35;;;;;;;;;;;;;;;-3.44;100.00;97429.74;110563;1245;60471;-74
2024/01/12 01:02:05;;;;;;;;;;;;;;;-3.41;100.00;97429.71;110571;1238;72096;-74
2024/01/12 01:04:36;;;;;;;;;;;;;;;-3.44;100.00;97431.98;110401;1239;69204;-73
2024/01/12 01:07:07;;;;;;;;;;;;;;;-3.40;100.00;97434.45;110590;1241;68523;-74
2024/01/12 01:09:39;;;;;;;;;;;;;;;-3.48;100.00;97433.07;110513;1240;60427;-74
2024/01/12 01:12:09;;;;;;;;;;;;;;;-3.45;100.00;97432.32;110433;1239;60437;-74
2024/01/12 01:14:39;;;;;;;;;;;;;;;-3.42;100.00;97434.33;110554;1239;72428;-74
2024/01/12 01:17:11;;;;;;;;;;;;;;;-3.48;100.00;97430.52;110479;1242;69076;-74
2024/01/12 01:19:44;;;;;;;;;;;;;;;-3.46;100.00;97431.84;110454;1248;69144;-73
2024/01/12 01:22:19;;;;;;;;;;;;;;;-3.46;100.00;97434.58;110443;1239;60510;-74
2024/01/12 01:24:51;;;;;;;;;;;;;;;-3.48;100.00;97432.03;110548;1239;60514;-73
2024/01/12 01:27:23;;;;;;;;;;;;;;;-3.47;100.00;97428.62;110537;1248;72241;-73
2024/01/12 01:29:54;;;;;;;;;;;;;;;-3.47;100.00;97428.27;110424;1241;68557;-73
2024/01/12 01:32:28;;;;;;;;;;;;;;;-3.49;100.00;97423.36;110532;1238;68517;-73
2024/01/12 01:34:59;;;;;;;;;;;;;;;-3.48;100.00;97423.69;110444;1239;60544;-73
2024/01/12 01:37:30;;;;;;;;;;;;;;;-3.48;100.00;97428.12;110394;1242;60481;-73
2024/01/12 01:40:07;;;;;;;;;;;;;;;-3.51;100.00;97425.79;110372;1238;73225;-73
2024/01/12 01:42:39;;;;;;;;;;;;;;;-3.49;100.00;97419.27;110420;1241;69258;-73
2024/01/12 01:45:10;;;;;;;;;;;;;;;-3.53;100.00;97420.70;110335;1241;69347;-73
2024/01/12 01:47:45;;;;;;;;;;;;;;;-3.55;100.00;97416.83;110417;1238;60910;-73
2024/01/12 01:50:16;;;;;;;;;;;;;;;-3.61;100.00;97417.93;110354;1242;60550;-72
2024/01/12 01:52:49;;;;;;;;;;;;;;;-3.66;100.00;97419.39;110485;1242;72124;-72
2024/01/12 01:55:20;;;;;;;;;;;;;;;-3.71;100.00;97417.59;110424;1238;68492;-73
2024/01/12 01:57:50;;;;;;;;;;;;;;;-3.73;100.00;97413.03;110583;1241;69179;-73
2024/01/12 02:00:29;;;;;;;;;;;;;;;-3.71;100.00;97409.25;110395;1242;60537;-73
2024/01/12 02:03:00;;;;;;;;;;;;;;;-3.76;100.00;97403.02;110476;1242;60511;-73
2024/01/12 02:05:30;;;;;;;;;;;;;;;-3.74;100.00;97404.54;110424;1238;72175;-73
2024/01/12 02:08:01;;;;;;;;;;;;;;;-3.74;100.00;97405.04;110448;1241;69074;-72
2024/01/12 02:10:31;;;;;;;;;;;;;;;-3.75;100.00;97405.40;110442;1238;68895;-72
2024/01/12 02:13:01;;;;;;;;;;;;;;;-3.74;100.00;97405.22;110420;1239;60544;-73
2024/01/12 02:15:31;;;;;;;;;;;;;;;-3.72;100.00;97409.96;110501;1239;60978;-72
2024/01/12 02:18:02;;;;;;;;;;;;;;;-3.71;100.00;97408.73;110375;1242;71440;-73
2024/01/12 02:20:31;;;;;;;;;;;;;;;-3.79;100.00;97406.81;110478;1238;67576;-73
2024/01/12 02:23:03;;;;;;;;;;;;;;;-3.81;100.00;97406.33;110514;1238;69262;-73
2024/01/12 02:25:35;;;;;;;;;;;;;;;-3.77;100.00;97410.52;110453;1239;60891;-72
2024/01/12 02:28:09;;;;;;;;;;;;;;;-3.77;100.00;97409.02;110389;1241;60492;-73
2024/01/12 02:30:41;;;;;;;;;;;;;;;-3.77;100.00;97402.20;110407;1241;71260;-73
2024/01/12 02:33:13;;;;;;;;;;;;;;;-3.77;100.00;97404.23;110413;1238;68576;-73
2024/01/12 02:35:45;;;;;;;;;;;;;;;-3.75;100.00;97407.62;110403;1242;69227;-73
2024/01/12 02:38:24;;;;;;;;;;;;;;;-3.75;100.00;97416.98;110304;1245;60551;-72
2024/01/12 02:40:57;;;;;;;;;;;;;;;-3.80;100.00;97419.27;110554;1239;60485;-72
2024/01/12 02:43:28;;;;;;;;;;;;;;;-3.83;100.00;97420.69;110581;1238;72272;-73
2024/01/12 02:46:01;;;;;;;;;;;;;;;-3.84;100.00;97418.48;110646;1241;68351;-73
2024/01/12 02:48:33;;;;;;;;;;;;;;;-3.87;100.00;97409.34;110555;1242;69281;-72
2024/01/12 02:51:06;;;;;;;;;;;;;;;-3.93;100.00;97412.49;110268;1243;60464;-72
2024/01/12 02:53:39;;;;;;;;;;;;;;;-3.95;100.00;97411.33;110479;1241;60482;-72
2024/01/12 02:56:12;;;;;;;;;;;;;;;-4.02;100.00;97410.59;110395;1242;70272;-73
2024/01/12 02:58:44;;;;;;;;;;;;;;;-4.10;100.00;97408.32;110413;1241;69234;-73
2024/01/12 03:01:20;;;;;;;;;;;;;;;-4.08;100.00;97411.36;110402;1239;68480;-73
2024/01/12 03:03:51;;;;;;;;;;;;;;;-4.09;100.00;97417.48;110577;1239;60477;-74
2024/01/12 03:06:30;;;;;;;;;;;;;;;-4.08;100.00;97422.59;110522;1239;60485;-73
2024/01/12 03:09:08;;;;;;;;;;;;;;;-4.07;100.00;97415.77;110452;1239;72034;-73
2024/01/12 03:11:40;;;;;;;;;;;;;;;-4.06;100.00;97414.74;110405;1238;69104;-74
2024/01/12 03:14:15;;;;;;;;;;;;;;;-4.07;100.00;97415.94;110355;1243;68636;-73
2024/01/12 03:16:47;;;;;;;;;;;;;;;-4.08;100.00;97418.84;110373;1241;60550;-72
2024/01/12 03:19:22;;;;;;;;;;;;;;;-4.06;100.00;97417.30;110382;1241;60511;-73
2024/01/12 03:21:54;;;;;;;;;;;;;;;-4.02;100.00;97415.19;110492;1242;71620;-73
2024/01/12 03:24:28;;;;;;;;;;;;;;;-4.00;100.00;97411.75;110563;1238;68708;-72
2024/01/12 03:27:01;;;;;;;;;;;;;;;-4.01;100.00;97410.58;110493;1239;69094;-74
2024/01/12 03:29:32;;;;;;;;;;;;;;;-4.00;100.00;97412.77;110544;1239;60540;-73
2024/01/12 03:32:06;;;;;;;;;;;;;;;-4.01;100.00;97410.58;110505;1240;60473;-72
2024/01/12 03:34:36;;;;;;;;;;;;;;;-4.04;100.00;97410.80;110416;1242;72233;-73
2024/01/12 03:37:10;;;;;;;;;;;;;;;-4.05;100.00;97408.42;110363;1238;69056;-74
2024/01/12 03:39:40;;;;;;;;;;;;;;;-4.10;100.00;97405.59;110536;1242;69275;-73
2024/01/12 03:42:11;;;;;;;;;;;;;;;-4.09;100.00;97411.37;110407;1241;60491;-74
2024/01/12 03:44:43;;;;;;;;;;;;;;;-4.13;100.00;97420.77;110449;1238;60495;-72
2024/01/12 03:47:16;;;;;;;;;;;;;;;-4.18;100.00;97420.52;110450;1238;72080;-72
2024/01/12 03:49:48;;;;;;;;;;;;;;;-4.18;100.00;97427.65;110403;1242;69073;-74
2024/01/12 03:52:22;;;;;;;;;;;;;;;-4.24;100.00;97432.84;110402;1242;69097;-72
2024/01/12 03:54:54;;;;;;;;;;;;;;;-4.22;100.00;97433.34;110387;1241;60472;-72
2024/01/12 03:57:25;;;;;;;;;;;;;;;-4.21;100.00;97433.15;110416;1238;60907;-72
2024/01/12 03:59:55;;;;;;;;;;;;;;;-4.18;100.00;97432.09;110344;1242;72204;-72
2024/01/12 04:02:26;;;;;;;;;;;;;;;-4.15;100.00;97434.94;110367;1242;69106;-73
2024/01/12 04:04:57;;;;;;;;;;;;;;;-4.16;100.00;97436.83;110336;1242;69104;-72
2024/01/12 04:07:28;;;;;;;;;;;;;;;-4.16;100.00;97436.98;110469;1239;60534;-72
2024/01/12 04:10:00;;;;;;;;;;;;;;;-4.16;100.00;97433.94;110472;1238;60927;-72
2024/01/12 04:12:30;;;;;;;;;;;;;;;-4.15;100.00;97438.36;110482;1239;72841;-73
2024/01/12 04:15:01;;;;;;;;;;;;;;;-4.15;100.00;97439.36;110492;1248;69230;-72
2024/01/12 04:17:32;;;;;;;;;;;;;;;-4.18;100.00;97443.67;110472;1242;69253;-72
2024/01/12 04:20:02;;;;;;;;;;;;;;;-4.14;100.00;97444.81;110410;1240;60447;-73
2024/01/12 04:22:34;;;;;;;;;;;;;;;-4.11;100.00;97444.25;110407;1243;60547;-73
2024/01/12 04:25:05;;;;;;;;;;;;;;;-4.10;100.00;97447.30;110393;1242;72202;-72
2024/01/12 04:27:36;;;;;;;;;;;;;;;-4.13;100.00;97449.04;110411;1241;68483;-72
2024/01/12 04:30:09;;;;;;;;;;;;;;;-4.12;100.00;97452.42;110379;1239;68355;-73
2024/01/12 04:32:39;;;;;;;;;;;;;;;-4.14;100.00;97456.38;110482;1242;60499;-72
2024/01/12 04:35:10;;;;;;;;;;;;;;;-4.12;100.00;97456.68;110345;1242;60502;-72
2024/01/12 04:37:41;;;;;;;;;;;;;;;-4.08;100.00;97456.82;110358;1238;72676;-72
2024/01/12 04:40:12;;;;;;;;;;;;;;;-4.08;100.00;97448.30;110463;1241;68210;-73
2024/01/12 04:42:42;;;;;;;;;;;;;;;-4.06;100.00;97452.36;110431;1239;69304;-73
2024/01/12 04:45:12;;;;;;;;;;;;;;;-4.05;100.00;97454.55;110523;1239;60492;-73
2024/01/12 04:47:43;;;;;;;;;;;;;;;-4.05;100.00;97456.08;111008;1238;60475;-73
2024/01/12 04:50:16;;;;;;;;;;;;;;;-4.04;100.00;97459.13;110758;1239;71723;-73
2024/01/12 04:52:49;;;;;;;;;;;;;;;-4.06;100.00;97463.25;110501;1241;68399;-72
2024/01/12 04:55:20;;;;;;;;;;;;;;;-4.05;100.00;97462.73;110539;1242;69125;-73
2024/01/12 04:57:51;;;;;;;;;;;;;;;-4.06;99.82;97465.30;110501;1238;60540;-72
2024/01/12 05:00:21;;;;;;;;;;;;;;;-4.08;100.00;97466.50;110730;1242;60539;-73
2024/01/12 05:02:52;;;;;;;;;;;;;;;-4.14;99.96;97470.33;110771;1238;71436;-73
2024/01/12 05:05:22;;;;;;;;;;;;;;;-4.17;100.00;97472.41;110918;1241;69173;-73
2024/01/12 05:07:52;;;;;;;;;;;;;;;-4.17;99.81;97471.23;110809;1242;68807;-73
2024/01/12 05:10:22;;;;;;;;;;;;;;;-4.17;99.37;97465.61;110798;1238;60546;-73
2024/01/12 05:12:53;;;;;;;;;;;;;;;-4.21;100.00;97472.45;110678;1238;60427;-73
2024/01/12 05:15:23;;;;;;;;;;;;;;;-4.25;100.00;97477.80;110603;1238;72004;-73
2024/01/12 05:17:53;;;;;;;;;;;;;;;-4.23;100.00;97478.80;110578;1242;69262;-73
2024/01/12 05:20:23;;;;;;;;;;;;;;;-4.24;100.00;97480.00;110551;1249;69293;-73
2024/01/12 05:22:52;;;;;;;;;;;;;;;-4.23;100.00;97477.61;110492;1241;60483;-72
2024/01/12 05:25:22;;;;;;;;;;;;;;;-4.23;100.00;97479.30;110468;1242;60492;-72
2024/01/12 05:27:53;;;;;;;;;;;;;;;-4.24;100.00;97479.49;110620;1242;71261;-73
2024/01/12 05:30:23;;;;;;;;;;;;;;;-4.27;100.00;97481.05;110467;1240;69203;-71
2024/01/12 05:32:54;;;;;;;;;;;;;;;-4.26;100.00;97482.75;110473;1241;69237;-71
2024/01/12 05:35:23;;;;;;;;;;;;;;;-4.30;100.00;97482.45;110468;1238;60501;-72
2024/01/12 05:37:54;;;;;;;;;;;;;;;-4.29;100.00;97484.48;110441;1241;60505;-71
2024/01/12 05:40:24;;;;;;;;;;;;;;;-4.31;100.00;97483.84;110395;1242;72067;-72
2024/01/12 05:42:53;;;;;;;;;;;;;;;-4.36;100.00;97482.55;110434;1241;68271;-72
2024/01/12 05:45:23;;;;;;;;;;;;;;;-4.36;100.00;97481.85;110429;1243;69218;-71
2024/01/12 05:47:54;;;;;;;;;;;;;;;-4.42;100.00;97481.41;110375;1238;60481;-71
2024/01/12 05:50:24;;;;;;;;;;;;;;;-4.35;100.00;97487.45;110406;1241;60463;-71
2024/01/12 05:52:54;;;;;;;;;;;;;;;-4.35;100.00;97492.23;110414;1241;72268;-72
2024/01/12 05:55:24;;;;;;;;;;;;;;;-4.41;100.00;97501.48;110428;1241;69339;-71
2024/01/12 05:57:55;;;;;;;;;;;;;;;-4.35;100.00;97511.94;110423;1240;69280;-72
2024/01/12 06:00:25;;;;;;;;;;;;;;;-4.33;100.00;97513.64;110371;1242;60541;-71
2024/01/12 06:02:54;;;;;;;;;;;;;;;-4.29;100.00;97515.28;110455;1242;60473;-72
2024/01/12 06:05:24;;;;;;;;;;;;;;;-4.29;100.00;97516.98;110471;1242;72105;-71
2024/01/12 06:07:55;;;;;;;;;;;;;;;-4.26;100.00;97522.90;110379;1242;69307;-71
2024/01/12 06:10:25;;;;;;;;;;;;;;;-4.23;100.00;97530.54;110422;1242;69351;-71
2024/01/12 06:12:54;;;;;;;;;;;;;;;-4.20;100.00;97534.23;110444;1242;60492;-71
2024/01/12 06:15:24;;;;;;;;;;;;;;;-4.16;100.00;97536.23;110491;1242;60473;-71
2024/01/12 06:17:54;;;;;;;;;;;;;;;-4.15;100.00;97544.57;110467;1239;71267;-71
2024/01/12 06:20:24;;;;;;;;;;;;;;;-4.13;100.00;97546.58;110469;1242;69080;-71
2024/01/12 06:22:54;;;;;;;;;;;;;;;-4.11;100.00;97547.23;110524;1245;69317;-72
2024/01/12 06:25:24;;;;;;;;;;;;;;;-4.10;100.00;97551.30;110513;1241;60488;-70
2024/01/12 06:27:53;;;;;;;;;;;;;;;-4.10;100.00;97552.83;110408;1240;60482;-71
2024/01/12 06:30:22;;;;;;;;;;;;;;;-4.05;100.00;97552.63;110441;1248;72111;-73
2024/01/12 06:32:52;;;;;;;;;;;;;;;-4.04;100.00;97549.69;110395;1242;69864;-71
2024/01/12 06:35:22;;;;;;;;;;;;;;;-4.03;100.00;97552.92;110424;1242;69904;-72
2024/01/12 06:37:53;;;;;;;;;;;;;;;-4.06;100.00;97557.05;110428;1242;60496;-72
2024/01/12 06:40:23;;;;;;;;;;;;;;;-4.09;100.00;97556.39;110410;1241;60475;-71
2024/01/12 06:42:53;;;;;;;;;;;;;;;-4.06;100.00;97557.05;110452;1241;71586;-72
2024/01/12 06:45:23;;;;;;;;;;;;;;;-4.05;100.00;97559.77;110624;1241;69166;-71
2024/01/12 06:47:53;;;;;;;;;;;;;;;-4.08;100.00;97561.49;110469;1241;69308;-71
2024/01/12 06:50:22;;;;;;;;;;;;;;;-4.06;100.00;97559.77;110480;1242;60615;-72
2024/01/12 06:52:52;;;;;;;;;;;;;;;-4.07;100.00;97568.98;110510;1241;60568;-72
2024/01/12 06:55:22;;;;;;;;;;;;;;;-4.07;100.00;97569.98;110495;1242;71363;-73
2024/01/12 06:57:51;;;;;;;;;;;;;;;-4.04;100.00;97573.02;110544;1238;69699;-72
2024/01/12 07:00:22;;;;;;;;;;;;;;;-4.00;100.00;97577.73;110346;1242;68370;-72
2024/01/12 07:02:51;;;;;;;;;;;;;;;-3.97;100.00;97581.11;110360;1241;60899;-72
2024/01/12 07:05:21;;;;;;;;;;;;;;;-3.92;100.00;97583.44;110372;1242;60942;-72
2024/01/12 07:07:51;;;;;;;;;;;;;;;-3.88;100.00;97583.22;110406;1241;72166;-72
2024/01/12 07:10:21;;;;;;;;;;;;;;;-3.86;100.00;97579.27;110366;1241;69236;-72
2024/01/12 07:12:53;;;;;;;;;;;;;;;-3.88;100.00;97580.48;110360;1242;69555;-72
2024/01/12 07:15:22;;;;;;;;;;;;;;;-4.03;100.00;97577.27;110341;1242;60514;-72
2024/01/12 07:17:53;;;;;;;;;;;;;;;-3.95;100.00;97573.08;110417;1238;60945;-72
2024/01/12 07:20:23;;;;;;;;;;;;;;;-3.92;100.00;97572.54;110401;1242;72057;-72
2024/01/12 07:22:52;;;;;;;;;;;;;;;-3.88;100.00;97574.19;110478;1242;70188;-72
2024/01/12 07:25:22;;;;;;;;;;;;;;;-3.84;100.00;97571.75;110424;1239;69435;-72
2024/01/12 07:27:51;;;;;;;;;;;;;;;-3.83;100.00;97569.52;110362;1248;60581;-72
2024/01/12 07:30:21;;;;;;;;;;;;;;;-3.81;100.00;97567.11;110388;1245;60547;-72
2024/01/12 07:32:51;;;;;;;;;;;;;;;-3.78;100.00;97572.70;110361;1242;72812;-72
2024/01/12 07:35:21;;;;;;;;;;;;;;;-3.77;100.00;97577.10;110394;1241;69638;-73
2024/01/12 07:37:51;;;;;;;;;;;;;;;-3.75;100.00;97580.65;110442;1242;68756;-72
2024/01/12 07:40:20;;;;;;;;;;;;;;;-3.76;100.00;97584.91;110411;1241;60542;-73
2024/01/12 07:42:49;;;;;;;;;;;;;;;-3.76;100.00;97587.81;110438;1241;60532;-72
2024/01/12 07:45:18;;;;;;;;;;;;;;;-3.75;100.00;97591.21;110408;1242;71419;-72
2024/01/12 07:47:47;;;;;;;;;;;;;;;-3.74;100.00;97592.90;110486;1241;69211;-72
2024/01/12 07:50:17;;;;;;;;;;;;;;;-3.70;100.00;97596.08;110417;1243;69279;-72
2024/01/12 07:52:47;;;;;;;;;;;;;;;-3.67;100.00;97599.45;110411;1244;60550;-72
2024/01/12 07:55:16;;;;;;;;;;;;;;;-3.64;100.00;97602.14;110424;1242;60478;-72
2024/01/12 07:57:45;;;;;;;;;;;;;;;-3.61;100.00;97602.77;110390;1238;72151;-72
2024/01/12 08:00:15;;;;;;;;;;;;;;;-3.57;100.00;97601.53;110388;1241;69933;-72
2024/01/12 08:02:45;;;;;;;;;;;;;;;-3.53;100.00;97597.73;110497;1242;69840;-72
2024/01/12 08:05:14;;;;;;;;;;;;;;;-3.63;100.00;97598.88;110476;1238;60450;-72
2024/01/12 08:07:44;;;;;;;;;;;;;;;-3.62;100.00;97600.57;110583;1242;60547;-73
2024/01/12 08:10:14;;;;;;;;;;;;;;;-3.73;100.00;97606.17;110524;1242;70309;-72
2024/01/12 08:12:43;;;;;;;;;;;;;;;-3.67;100.00;97617.85;110614;1240;69176;-73
2024/01/12 08:15:12;;;;;;;;;;;;;;;-3.65;100.00;97626.16;110543;1243;69861;-72
2024/01/12 08:17:43;;;;;;;;;;;;;;;-3.73;100.00;97630.02;110549;1239;60557;-72
2024/01/12 08:20:13;;;;;;;;;;;;;;;-3.68;100.00;97633.69;110537;1242;60433;-72
2024/01/12 08:22:42;;;;;;;;;;;;;;;-3.62;100.00;97637.72;110532;1240;72169;-72
2024/01/12 08:25:11;;;;;;;;;;;;;;;-3.60;100.00;97639.89;110484;1241;68991;-73
2024/01/12 08:27:40;;;;;;;;;;;;;;;-3.76;100.00;97643.02;110469;1241;69913;-73
2024/01/12 08:30:10;;;;;;;;;;;;;;;-3.74;100.00;97641.62;110329;1242;60531;-73
2024/01/12 08:32:40;;;;;;;;;;;;;;;-3.63;100.00;97641.98;110395;1242;60546;-73
2024/01/12 08:35:14;;;;;;;;;;;;;;;-3.55;100.00;97640.52;110420;1242;72095;-73
2024/01/12 08:37:43;;;;;;;;;;;;;;;-3.46;100.00;97638.35;110522;1242;69129;-72
2024/01/12 08:40:12;;;;;;;;;;;;;;;-3.40;100.00;97640.66;110429;1243;67530;-72
2024/01/12 08:42:41;;;;;;;;;;;;;;;-3.30;100.00;97644.95;110518;1241;60522;-72
2024/01/12 08:45:10;;;;;;;;;;;;;;;-3.24;100.00;97649.30;110524;1240;60517;-73
2024/01/12 08:47:41;;;;;;;;;;;;;;;-3.19;100.00;97648.73;110225;1239;71753;-73
2024/01/12 08:50:11;;;;;;;;;;;;;;;-3.14;99.85;97647.29;110459;1243;68286;-73
2024/01/12 08:52:40;;;;;;;;;;;;;;;-3.31;99.81;97651.11;110407;1242;69830;-73
2024/01/12 08:55:12;;;;;;;;;;;;;;;-3.34;100.00;97653.88;110401;1242;60514;-73
2024/01/12 08:57:41;;;;;;;;;;;;;;;-3.30;100.00;97656.38;110484;1239;60483;-71
2024/01/12 09:00:11;;;;;;;;;;;;;;;-3.36;100.00;97653.39;110484;1238;71294;-73
2024/01/12 09:02:40;;;;;;;;;;;;;;;-3.26;100.00;97655.63;110515;1241;68490;-73
2024/01/12 09:05:10;;;;;;;;;;;;;;;-3.19;99.31;97660.30;110570;1241;69429;-72
2024/01/12 09:07:41;;;;;;;;;;;;;;;-3.13;99.15;97666.70;110568;1242;60505;-73
2024/01/12 09:10:10;;;;;;;;;;;;;;;-3.13;99.05;97673.52;110529;1241;60477;-72
2024/01/12 09:12:40;;;;;;;;;;;;;;;-3.17;98.12;97676.98;110421;1244;72538;-72
2024/01/12 09:15:09;;;;;;;;;;;;;;;-3.14;98.08;97675.08;110452;1240;69364;-73
2024/01/12 09:17:40;;;;;;;;;;;;;;;-3.16;98.01;97682.25;110545;1240;68539;-72
2024/01/12 09:20:09;;;;;;;;;;;;;;;-3.18;97.85;97689.95;110578;1242;60840;-72
2024/01/12 09:22:38;;;;;;;;;;;;;;;-3.16;97.44;97692.31;110537;1241;60508;-72
2024/01/12 09:25:09;;;;;;;;;;;;;;;-3.19;98.09;97693.20;110507;1239;73254;-72
2024/01/12 09:27:39;;;;;;;;;;;;;;;-3.20;97.75;97697.67;110474;1240;69251;-72
2024/01/12 09:30:09;;;;;;;;;;;;;;;-3.19;97.51;97696.97;110581;1238;69284;-72
2024/01/12 09:32:38;;;;;;;;;;;;;;;-3.22;96.86;97692.91;110448;1243;60519;-72
2024/01/12 09:35:08;;;;;;;;;;;;;;;-3.25;96.57;97694.32;110441;1242;60477;-72
2024/01/12 09:37:38;;;;;;;;;;;;;;;-3.24;96.66;97697.89;110473;1240;72170;-72
2024/01/12 09:40:08;;;;;;;;;;;;;;;-3.22;96.11;97699.39;110463;1238;69253;-72
2024/01/12 09:42:41;;;;;;;;;;;;;;;-3.18;96.35;97699.02;110431;1242;68498;-72
2024/01/12 09:45:14;;;;;;;;;;;;;;;-3.27;96.53;97695.71;110396;1242;60540;-72
2024/01/12 09:47:52;;;;;;;;;;;;;;;-3.25;95.91;97691.41;110421;1239;60491;-72
2024/01/12 09:50:22;;;;;;;;;;;;;;;-3.24;95.92;97691.23;110469;1240;71446;-72
2024/01/12 09:52:52;;;;;;;;;;;;;;;-3.19;95.79;97690.48;110547;1239;70213;-72
2024/01/12 09:55:21;;;;;;;;;;;;;;;-3.20;94.29;97686.58;110480;1240;69246;-72
2024/01/12 09:57:51;;;;;;;;;;;;;;;-3.15;94.15;97683.10;110454;1242;60506;-72
2024/01/12 10:00:21;;;;;;;;;;;;;;;-3.15;94.69;97679.00;110540;1243;60489;-72
2024/01/12 10:02:50;;;;;;;;;;;;;;;-3.08;93.81;97680.78;110507;1241;72141;-72
2024/01/12 10:05:20;;;;;;;;;;;;;;;-3.14;93.08;97677.12;110418;1241;69251;-72
2024/01/12 10:07:51;;;;;;;;;;;;;;;-3.13;92.97;97678.98;110446;1240;69554;-72
2024/01/12 10:10:20;;;;;;;;;;;;;;;-3.13;92.95;97676.08;110481;1241;60491;-71
2024/01/12 10:12:52;;;;;;;;;;;;;;;-3.09;92.77;97671.60;110460;1240;60454;-72
2024/01/12 10:15:21;;;;;;;;;;;;;;;-3.16;92.48;97675.95;110436;1242;73123;-73
2024/01/12 10:17:51;;;;;;;;;;;;;;;-3.19;91.96;97673.77;110441;1242;69731;-72
2024/01/12 10:20:22;;;;;;;;;;;;;;;-3.17;92.08;97670.85;110460;1242;70400;-72
2024/01/12 10:22:55;;;;;;;;;;;;;;;-3.12;91.90;97670.95;110482;1242;60508;-72
2024/01/12 10:25:24;;;;;;;;;;;;;;;-3.05;91.89;97665.58;110465;1241;60489;-72
2024/01/12 10:27:54;;;;;;;;;;;;;;;-3.01;92.00;97662.61;110443;1241;72882;-73
2024/01/12 10:30:23;;;;;;;;;;;;;;;-3.23;90.65;97658.66;110431;1243;69252;-73
2024/01/12 10:32:54;;;;;;;;;;;;;;;-3.28;91.33;97659.93;110400;1242;69848;-72
2024/01/12 10:35:23;;;;;;;;;;;;;;;-3.31;91.14;97659.61;110407;1244;60540;-71
2024/01/12 10:37:57;;;;;;;;;;;;;;;-3.22;91.22;97664.27;110513;1241;60505;-71
2024/01/12 10:40:26;;;;;;;;;;;;;;;-3.17;91.60;97661.81;110463;1239;72559;-71
2024/01/12 10:42:56;;;;;;;;;;;;;;;-3.08;91.65;97662.20;110522;1240;69261;-71
2024/01/12 10:45:27;;;;;;;;;;;;;;;-3.03;90.72;97655.48;110461;1242;68891;-71
2024/01/12 10:48:02;;;;;;;;;;;;;;;-3.04;89.96;97653.27;110484;1241;60493;-71
2024/01/12 10:50:40;;;;;;;;;;;;;;;-2.99;90.46;97651.48;110497;1241;60478;-71
2024/01/12 10:53:14;;;;;;;;;;;;;;;-2.99;89.79;97652.37;110415;1241;72201;-73
2024/01/12 10:55:50;;;;;;;;;;;;;;;-2.94;89.87;97649.54;110452;1242;68782;-71
2024/01/12 10:58:21;;;;;;;;;;;;;;;-2.89;91.04;97648.61;110400;1240;69291;-72
2024/01/12 11:00:50;;;;;;;;;;;;;;;-2.82;90.71;97651.92;110436;1241;60495;-72
2024/01/12 11:03:20;;;;;;;;;;;;;;;-2.82;90.94;97650.04;110444;1247;60547;-72
2024/01/12 11:05:50;;;;;;;;;;;;;;;-2.77;89.90;97650.63;110085;1241;498543;-72
2024/01/12 11:08:21;;;;;;;;;;;;;;;-2.71;89.66;97652.08;110558;1240;69200;-71
2024/01/12 11:10:52;;;;;;;;;;;;;;;-2.67;88.84;97651.85;110538;1238;70012;-72
2024/01/12 11:13:22;;;;;;;;;;;;;;;-2.67;87.94;97657.30;110547;1249;60527;-71
2024/01/12 11:15:52;;;;;;;;;;;;;;;-2.81;87.07;97657.17;110546;1242;60427;-72
2024/01/12 11:18:21;;;;;;;;;;;;;;;-2.85;87.02;97657.42;110586;1241;72214;-73
2024/01/12 11:21:00;;;;;;;;;;;;;;;-2.84;87.90;97662.19;110586;1247;69700;-73
2024/01/12 11:23:29;;;;;;;;;;;;;;;-2.81;88.05;97659.41;110576;1241;69856;-73
2024/01/12 11:25:59;;;;;;;;;;;;;;;-2.79;88.17;97660.06;110462;1242;60547;-73
2024/01/12 11:28:38;;;;;;;;;;;;;;;-2.76;88.03;97659.67;110453;1240;60422;-72
2024/01/12 11:31:07;;;;;;;;;;;;;;;-2.78;88.32;97656.45;110423;1243;72017;-71
2024/01/12 11:33:41;;;;;;;;;;;;;;;-2.81;88.14;97659.23;110471;1239;69804;-72
2024/01/12 11:36:14;;;;;;;;;;;;;;;-2.91;87.50;97657.34;110506;1245;70193;-73
2024/01/12 11:38:43;;;;;;;;;;;;;;;-2.89;87.94;97656.63;110504;1241;60547;-73
2024/01/12 11:41:15;;;;;;;;;;;;;;;-2.94;88.26;97656.02;110480;1243;60544;-72
2024/01/12 11:43:47;;;;;;;;;;;;;;;-2.90;88.90;97656.64;110527;1247;72883;-73
2024/01/12 11:46:18;;;;;;;;;;;;;;;-2.83;88.45;97656.36;110498;1243;69230;-72
2024/01/12 11:48:47;;;;;;;;;;;;;;;-2.85;88.30;97652.45;110549;1238;69222;-72
2024/01/12 11:51:24;;;;;;;;;;;;;;;-2.96;88.50;97651.61;110514;1242;60522;-72
2024/01/12 11:53:56;;;;;;;;;;;;;;;-3.02;88.49;97651.90;110486;1242;60513;-72
2024/01/12 11:56:26;;;;;;;;;;;;;;;-2.98;87.99;97653.20;110593;1242;72225;-71
2024/01/12 11:58:55;;;;;;;;;;;;;;;-3.05;88.53;97653.30;110455;1242;69748;-71
2024/01/12 12:01:25;;;;;;;;;;;;;;;-2.96;88.03;97651.09;110501;1242;68440;-71
2024/01/12 12:03:54;;;;;;;;;;;;;;;-2.92;88.34;97653.09;110521;1238;60514;-72
2024/01/12 12:06:23;;;;;;;;;;;;;;;-2.93;88.83;97655.84;110630;1244;60509;-72
2024/01/12 12:08:55;;;;;;;;;;;;;;;-2.90;88.14;97660.05;110590;1241;73043;-72
2024/01/12 12:11:25;;;;;;;;;;;;;;;-2.91;88.81;97659.05;110462;1241;69213;-72
2024/01/12 12:13:54;;;;;;;;;;;;;;;-2.97;89.64;97662.55;110407;1247;69869;-72
2024/01/12 12:16:24;;;;;;;;;;;;;;;-2.97;89.14;97660.84;110452;1246;60536;-72
2024/01/12 12:18:53;;;;;;;;;;;;;;;-2.99;89.17;97656.94;110430;1242;60900;-72
2024/01/12 12:21:22;;;;;;;;;;;;;;;-2.95;89.17;97655.86;110465;1242;71463;-74
2024/01/12 12:23:52;;;;;;;;;;;;;;;-3.00;88.85;97655.09;110473;1242;69365;-73
2024/01/12 12:26:21;;;;;;;;;;;;;;;-2.99;89.18;97657.30;110431;1241;68864;-73
2024/01/12 12:28:54;;;;;;;;;;;;;;;-3.09;89.22;97659.64;110525;1243;60538;-73
2024/01/12 12:31:26;;;;;;;;;;;;;;;-3.03;90.15;97661.10;110467;1242;61434;-73
2024/01/12 12:33:56;;;;;;;;;;;;;;;-3.01;89.87;97660.23;110500;1242;72724;-73
2024/01/12 12:36:29;;;;;;;;;;;;;;;-2.95;89.65;97663.54;110519;1239;69848;-73
2024/01/12 12:38:58;;;;;;;;;;;;;;;-3.00;89.59;97664.81;110468;1242;69525;-72
2024/01/12 12:41:27;;;;;;;;;;;;;;;-2.89;89.39;97665.16;110492;1242;60485;-73
2024/01/12 12:43:57;;;;;;;;;;;;;;;-2.84;90.17;97670.36;110505;1242;60491;-73
2024/01/12 12:46:27;;;;;;;;;;;;;;;-2.82;89.78;97676.64;110531;1239;73112;-72
2024/01/12 12:48:56;;;;;;;;;;;;;;;-2.88;89.08;97674.34;110546;1241;69532;-71